createdAt,value
2022-11-10T00:02:18.158Z,59.12
2022-11-10T00:06:07.907Z,60.21
2022-11-10T00:09:07.866Z,60.15
2022-11-10T00:11:07.881Z,60.2
2022-11-10T00:13:18.247Z,60.03
2022-11-10T00:15:18.193Z,59.94
2022-11-10T00:17:30.162Z,60.09
2022-11-10T00:20:18.189Z,60.07
2022-11-10T00:22:18.211Z,60.22
2022-11-10T00:25:18.316Z,59.85
2022-11-10T00:27:19.330Z,60.17
2022-11-10T00:29:30.164Z,60.24
2022-11-10T00:32:18.209Z,59.92
2022-11-10T00:35:39.205Z,59.86
2022-11-10T00:38:18.199Z,60.09
2022-11-10T00:40:18.185Z,60.02
2022-11-10T00:42:28.595Z,60.29
2022-11-10T00:45:18.193Z,60.25
2022-11-10T00:47:21.897Z,60.17
2022-11-10T00:50:07.959Z,60.13
2022-11-10T00:54:07.914Z,60.26
2022-11-10T00:56:28.634Z,60.66
2022-11-10T00:59:18.191Z,60.7
2022-11-10T01:02:08.016Z,60.58
2022-11-10T01:05:07.863Z,60.99
2022-11-10T01:07:07.940Z,60.98
2022-11-10T01:09:18.260Z,61
2022-11-10T01:12:08.351Z,60.89
2022-11-10T01:16:07.901Z,61.08
2022-11-10T01:18:18.161Z,61.25
2022-11-10T01:22:07.920Z,61.32
2022-11-10T01:26:07.922Z,61.37
2022-11-10T01:28:18.299Z,61.29
2022-11-10T01:30:28.457Z,61.36
2022-11-10T01:34:07.937Z,61.3
2022-11-10T01:36:07.883Z,61.14
2022-11-10T01:39:19.399Z,61.33
2022-11-10T01:41:40.420Z,61.31
2022-11-10T01:44:18.327Z,61.35
2022-11-10T01:46:28.441Z,61.09
2022-11-10T01:48:28.476Z,61.22
2022-11-10T01:51:18.161Z,61
2022-11-10T01:54:07.975Z,60.97
2022-11-10T01:58:19.207Z,61.1
2022-11-10T02:01:18.233Z,61.11
2022-11-10T02:04:07.896Z,60.94
2022-11-10T02:06:07.907Z,61.14
2022-11-10T02:08:07.882Z,61.17
2022-11-10T02:11:07.882Z,61.08
2022-11-10T02:13:07.883Z,61.28
2022-11-10T02:16:18.211Z,61.28
2022-11-10T02:19:08.010Z,61.11
2022-11-10T02:22:07.887Z,61.12
2022-11-10T02:24:09.034Z,61.32
2022-11-10T02:27:19.184Z,61.33
2022-11-10T02:30:18.211Z,61.37
2022-11-10T02:36:07.984Z,61.36
2022-11-10T02:38:07.896Z,61.52
2022-11-10T02:40:30.311Z,61.37
2022-11-10T02:43:18.206Z,61.47
2022-11-10T02:47:07.892Z,61.61
2022-11-10T02:49:07.985Z,61.54
2022-11-10T02:52:07.886Z,61.64
2022-11-10T02:55:10.916Z,61.86
2022-11-10T02:57:28.498Z,61.78
2022-11-10T03:00:18.282Z,61.78
2022-11-10T03:03:07.878Z,61.71
2022-11-10T03:05:08.267Z,61.92
2022-11-10T03:07:07.929Z,61.7
2022-11-10T03:09:18.202Z,61.94
2022-11-10T03:12:07.992Z,61.97
2022-11-10T03:15:07.884Z,61.88
2022-11-10T03:17:07.892Z,61.71
2022-11-10T03:19:07.902Z,62.08
2022-11-10T03:22:07.881Z,62.16
2022-11-10T03:24:07.923Z,62.04
2022-11-10T03:27:07.896Z,62.21
2022-11-10T03:29:07.903Z,62.27
2022-11-10T03:32:08.418Z,62.27
2022-11-10T03:34:07.899Z,62.16
2022-11-10T03:36:08.033Z,61.94
2022-11-10T03:39:07.885Z,62.04
2022-11-10T03:41:20.372Z,62.12
2022-11-10T03:44:07.891Z,62.01
2022-11-10T03:46:07.898Z,62.07
2022-11-10T03:49:08.045Z,61.91
2022-11-10T03:52:07.894Z,62.02
2022-11-10T03:54:07.883Z,61.96
2022-11-10T03:56:07.880Z,61.88
2022-11-10T03:58:07.933Z,61.76
2022-11-10T04:00:07.967Z,61.63
2022-11-10T04:03:08.101Z,61.62
2022-11-10T04:06:08.044Z,61.3
2022-11-10T04:09:08.181Z,61.35
2022-11-10T04:12:07.995Z,61.12
2022-11-10T04:14:07.971Z,61.37
2022-11-10T04:17:08.288Z,61.42
2022-11-10T04:19:18.186Z,61.32
2022-11-10T04:22:07.895Z,61.55
2022-11-10T04:24:07.897Z,61.38
2022-11-10T04:26:07.916Z,61.4
2022-11-10T04:29:07.904Z,61.6
2022-11-10T04:31:07.902Z,61.72
2022-11-10T04:34:07.918Z,61.87
2022-11-10T04:37:07.896Z,61.71
2022-11-10T04:40:07.900Z,61.7
2022-11-10T04:43:08.061Z,61.56
2022-11-10T04:45:18.205Z,61.69
2022-11-10T04:48:07.919Z,61.81
2022-11-10T04:51:07.897Z,61.81
2022-11-10T04:54:08.154Z,61.63
2022-11-10T04:56:28.464Z,61.67
2022-11-10T04:58:28.641Z,61.86
2022-11-10T05:01:07.938Z,61.88
2022-11-10T05:04:07.945Z,61.93
2022-11-10T05:07:07.957Z,61.84
2022-11-10T05:09:24.028Z,61.74
2022-11-10T05:12:07.937Z,61.78
2022-11-10T05:15:07.951Z,61.55
2022-11-10T05:18:07.962Z,61.79
2022-11-10T05:20:07.955Z,61.81
2022-11-10T05:23:07.945Z,61.68
2022-11-10T05:25:08.069Z,62.02
2022-11-10T05:28:07.923Z,61.61
2022-11-10T05:30:11.873Z,61.98
2022-11-10T05:33:07.941Z,61.93
2022-11-10T05:35:07.948Z,61.81
2022-11-10T05:38:07.940Z,62.05
2022-11-10T05:40:08.347Z,62.11
2022-11-10T05:44:07.915Z,61.98
2022-11-10T05:46:28.497Z,62.19
2022-11-10T05:50:08.016Z,62.15
2022-11-10T05:52:40.439Z,62.08
2022-11-10T05:55:08.091Z,61.92
2022-11-10T05:57:29.503Z,61.78
2022-11-10T05:59:30.266Z,61.71
2022-11-10T06:03:11.353Z,62.05
2022-11-10T06:05:18.363Z,61.89
2022-11-10T06:08:08.000Z,62.35
2022-11-10T06:10:07.980Z,62.12
2022-11-10T06:14:08.098Z,61.99
2022-11-10T06:16:18.216Z,62.22
2022-11-10T06:18:18.213Z,62.15
2022-11-10T06:22:08.154Z,62
2022-11-10T06:25:07.942Z,61.67
2022-11-10T06:27:19.270Z,62.16
2022-11-10T06:30:08.186Z,62.1
2022-11-10T06:32:30.168Z,62.27
2022-11-10T06:35:18.380Z,62.05
2022-11-10T06:38:18.776Z,62.08
2022-11-10T06:40:18.336Z,62.09
2022-11-10T06:43:07.933Z,61.96
2022-11-10T06:45:30.328Z,61.92
2022-11-10T06:48:18.425Z,62.03
2022-11-10T06:51:38.989Z,62.13
2022-11-10T06:54:18.211Z,62.05
2022-11-10T06:57:18.199Z,62.16
2022-11-10T07:00:07.918Z,62.11
2022-11-10T07:03:07.938Z,62.06
2022-11-10T07:05:18.180Z,61.96
2022-11-10T07:07:18.266Z,61.93
2022-11-10T07:10:08.026Z,62.16
2022-11-10T07:15:07.948Z,62
2022-11-10T07:17:28.540Z,61.87
2022-11-10T07:20:18.207Z,61.99
2022-11-10T07:23:18.255Z,62.03
2022-11-10T07:26:07.930Z,62.03
2022-11-10T07:28:08.060Z,61.97
2022-11-10T07:32:07.937Z,62.32
2022-11-10T07:34:18.209Z,62.31
2022-11-10T07:36:18.234Z,62.41
2022-11-10T07:40:07.967Z,62.62
2022-11-10T07:42:07.961Z,62.64
2022-11-10T07:44:07.962Z,62.49
2022-11-10T07:46:18.190Z,62.31
2022-11-10T07:49:07.920Z,62.45
2022-11-10T07:52:07.946Z,62.61
2022-11-10T07:54:18.231Z,62.58
2022-11-10T07:57:18.218Z,62.64
2022-11-10T07:59:18.283Z,62.58
2022-11-10T08:02:38.803Z,62.55
2022-11-10T08:05:28.585Z,62.81
2022-11-10T08:07:28.610Z,62.65
2022-11-10T08:10:07.936Z,62.56
2022-11-10T08:12:08.162Z,62.46
2022-11-10T08:14:07.959Z,62.51
2022-11-10T08:18:07.948Z,62.46
2022-11-10T08:20:18.307Z,62.37
2022-11-10T08:23:18.323Z,62.17
2022-11-10T08:26:08.189Z,62.34
2022-11-10T08:28:07.931Z,62.37
2022-11-10T08:32:07.939Z,62.37
2022-11-10T08:34:18.745Z,62.56
2022-11-10T08:36:18.188Z,62.53
2022-11-10T08:39:36.499Z,62.47
2022-11-10T08:42:07.957Z,62.51
2022-11-10T08:44:10.783Z,62.42
2022-11-10T08:47:08.160Z,62.3
2022-11-10T08:49:18.285Z,62.23
2022-11-10T08:52:07.914Z,62.01
2022-11-10T08:54:30.185Z,62.16
2022-11-10T08:57:18.338Z,62.22
2022-11-10T09:00:18.273Z,62.27
2022-11-10T09:03:07.961Z,62.16
2022-11-10T09:06:08.012Z,62.08
2022-11-10T09:09:07.941Z,61.89
2022-11-10T09:11:18.216Z,61.79
2022-11-10T09:14:07.965Z,61.86
2022-11-10T09:17:07.923Z,61.87
2022-11-10T09:20:19.842Z,62.36
2022-11-10T09:22:28.499Z,62.06
2022-11-10T09:25:18.211Z,61.85
2022-11-10T09:27:18.369Z,61.95
2022-11-10T09:30:05.394Z,61.82
2022-11-10T09:32:18.360Z,62.22
2022-11-10T09:35:07.973Z,61.8
2022-11-10T09:37:30.354Z,61.36
2022-11-10T09:40:28.510Z,61.1
2022-11-10T09:44:07.938Z,60.7
2022-11-10T09:46:07.928Z,60.64
2022-11-10T09:49:19.703Z,60.7
2022-11-10T09:52:18.229Z,60.83
2022-11-10T09:56:07.928Z,60.77
2022-11-10T09:58:07.939Z,60.89
2022-11-10T10:00:18.219Z,60.87
2022-11-10T10:03:18.230Z,60.7
2022-11-10T10:06:07.922Z,60.73
2022-11-10T10:09:08.543Z,60.33
2022-11-10T10:11:07.945Z,60.36
2022-11-10T10:14:07.922Z,59.83
2022-11-10T10:16:08.011Z,60.01
2022-11-10T10:18:07.938Z,59.78
2022-11-10T10:21:10.155Z,59.79
2022-11-10T10:24:11.241Z,59.67
2022-11-10T10:26:07.970Z,59.64
2022-11-10T10:29:07.931Z,59.37
2022-11-10T10:31:28.689Z,59.68
2022-11-10T10:35:07.938Z,59.21
2022-11-10T10:37:30.211Z,59.33
2022-11-10T10:40:18.300Z,58.91
2022-11-10T10:42:18.372Z,58.46
2022-11-10T10:45:33.290Z,57.92
2022-11-10T10:48:18.236Z,57.21
2022-11-10T10:51:07.946Z,57.1
2022-11-10T10:53:30.213Z,56.43
2022-11-10T10:56:18.348Z,55.74
2022-11-10T10:58:18.360Z,55.7
2022-11-10T11:00:38.841Z,55.75
2022-11-10T11:03:30.923Z,54.97
2022-11-10T11:05:28.495Z,53.87
2022-11-10T11:08:08.077Z,53.71
2022-11-10T11:11:07.940Z,52.7
2022-11-10T11:13:07.940Z,52.8
2022-11-10T11:15:28.590Z,52.84
2022-11-10T11:17:28.571Z,52.68
2022-11-10T11:20:28.500Z,52.82
2022-11-10T11:22:43.333Z,51.74
2022-11-10T11:25:28.759Z,52.25
2022-11-10T11:27:38.812Z,51.66
2022-11-10T11:30:28.510Z,50.6
2022-11-10T11:32:28.510Z,50.81
2022-11-10T11:37:11.223Z,50.97
2022-11-10T11:41:07.956Z,50.01
2022-11-10T11:43:28.513Z,49.97
2022-11-10T11:46:28.505Z,49.76
2022-11-10T11:48:30.235Z,48.98
2022-11-10T11:51:18.251Z,49.13
2022-11-10T11:54:08.934Z,48.12
2022-11-10T11:56:07.955Z,48.61
2022-11-10T11:59:28.537Z,48.41
2022-11-10T12:01:32.930Z,48.67
2022-11-10T12:04:18.235Z,47.64
2022-11-10T12:07:38.811Z,47.21
2022-11-10T12:09:42.179Z,46.78
2022-11-10T12:12:18.260Z,47.14
2022-11-10T12:15:07.950Z,45.87
2022-11-10T12:19:07.945Z,46.1
2022-11-10T12:21:07.944Z,45.38
2022-11-10T12:24:10.334Z,44.95
2022-11-10T12:27:18.235Z,45.22
2022-11-10T12:29:18.261Z,43.94
2022-11-10T12:32:07.981Z,43.91
2022-11-10T12:36:08.020Z,44.48
2022-11-10T12:38:28.548Z,44.79
2022-11-10T12:41:07.926Z,44.13
2022-11-10T12:43:07.949Z,44.77
2022-11-10T12:45:07.973Z,44.88
2022-11-10T12:47:07.974Z,44.02
2022-11-10T12:49:18.282Z,43.09
2022-11-10T12:51:18.250Z,42.88
2022-11-10T12:54:11.135Z,44.23
2022-11-10T12:57:07.947Z,44.24
2022-11-10T12:59:07.964Z,43.09
2022-11-10T13:01:07.969Z,44.21
2022-11-10T13:03:07.960Z,44.46
2022-11-10T13:06:07.976Z,43.07
2022-11-10T13:08:07.992Z,44.35
2022-11-10T13:11:07.980Z,44.29
2022-11-10T13:13:07.962Z,44.71
2022-11-10T13:16:07.993Z,44.11
2022-11-10T13:18:08.052Z,44.35
2022-11-10T13:21:07.959Z,43.64
2022-11-10T13:24:07.993Z,43.25
2022-11-10T13:26:08.001Z,43.43
2022-11-10T13:28:07.986Z,42.78
2022-11-10T13:30:08.128Z,42.97
2022-11-10T13:33:07.957Z,42.39
2022-11-10T13:35:07.966Z,41.95
2022-11-10T13:38:08.106Z,42.16
2022-11-10T13:42:07.995Z,40.99
2022-11-10T13:46:08.002Z,40.89
2022-11-10T13:48:18.277Z,39.75
2022-11-10T13:51:07.975Z,40.51
2022-11-10T13:54:07.991Z,40.79
2022-11-10T13:56:08.022Z,41.46
2022-11-10T13:59:08.005Z,39.28
2022-11-10T14:01:18.271Z,40.69
2022-11-10T14:04:08.060Z,40.77
2022-11-10T14:07:08.027Z,39.67
2022-11-10T14:10:08.062Z,40.5
2022-11-10T14:13:08.015Z,40.15
2022-11-10T14:15:08.003Z,40.87
2022-11-10T14:18:08.038Z,39.39
2022-11-10T14:21:07.990Z,42.01
2022-11-10T14:23:08.008Z,42.18
2022-11-10T14:26:08.037Z,42.95
2022-11-10T14:28:08.014Z,43.3
2022-11-10T14:30:08.034Z,43.08
2022-11-10T14:33:07.984Z,40.77
2022-11-10T14:36:08.055Z,39.84
2022-11-10T14:39:07.967Z,40.67
2022-11-10T14:41:08.019Z,41.12
2022-11-10T14:44:07.970Z,41.65
2022-11-10T14:46:08.014Z,42.16
2022-11-10T14:49:07.960Z,42.23
2022-11-10T14:51:07.987Z,41.94
2022-11-10T14:54:07.971Z,41.96
2022-11-10T14:57:07.972Z,42.16
2022-11-10T14:59:07.983Z,42.51
2022-11-10T15:02:07.976Z,42.66
2022-11-10T15:04:08.074Z,42.81
2022-11-10T15:07:08.016Z,43.15
2022-11-10T15:09:07.973Z,43.48
2022-11-10T15:11:07.976Z,43.9
2022-11-10T15:14:07.991Z,43.97
2022-11-10T15:16:07.982Z,44.42
2022-11-10T15:19:08.015Z,45.22
2022-11-10T15:22:08.030Z,45.78
2022-11-10T15:25:07.976Z,46.19
2022-11-10T15:27:08.006Z,46.44
2022-11-10T15:30:08.002Z,45.33
2022-11-10T15:33:07.967Z,44.23
2022-11-10T15:35:07.993Z,44.23
2022-11-10T15:37:08.002Z,44.23
2022-11-10T15:41:07.996Z,44.59
2022-11-10T15:43:18.302Z,44.85
2022-11-10T15:45:18.345Z,44.97
2022-11-10T15:47:38.852Z,45.32
2022-11-10T15:49:52.499Z,45.8
2022-11-10T15:52:18.305Z,46.01
2022-11-10T15:54:18.302Z,46.37
2022-11-10T15:57:18.300Z,46.73
2022-11-10T15:59:18.327Z,46.95
2022-11-10T16:02:18.336Z,47.32
2022-11-10T16:05:28.599Z,47.69
2022-11-10T16:07:52.514Z,47.87
2022-11-10T16:10:18.311Z,48.32
2022-11-10T16:13:18.264Z,48.59
2022-11-10T16:15:18.294Z,49.07
2022-11-10T16:18:49.122Z,49.04
2022-11-10T16:21:31.596Z,49.5
2022-11-10T16:24:28.547Z,49.74
2022-11-10T16:27:28.583Z,50.33
2022-11-10T16:30:28.609Z,50.45
2022-11-10T16:32:28.622Z,50.46
2022-11-10T16:34:32.036Z,50.53
2022-11-10T16:36:38.884Z,50.6
2022-11-10T16:39:33.680Z,50.81
2022-11-10T16:42:28.566Z,51.17
2022-11-10T16:46:08.018Z,51.7
2022-11-10T16:48:08.017Z,51.84
2022-11-10T16:51:08.037Z,52.13
2022-11-10T16:53:28.581Z,52.25
2022-11-10T16:56:08.073Z,52.24
2022-11-10T16:59:40.300Z,52.55
2022-11-10T17:02:08.005Z,52.19
2022-11-10T17:04:18.330Z,52.75
2022-11-10T17:07:08.079Z,52.81
2022-11-10T17:10:08.008Z,52.68
2022-11-10T17:13:08.018Z,53.23
2022-11-10T17:15:20.564Z,53.27
2022-11-10T17:17:28.576Z,53.28
2022-11-10T17:19:30.270Z,53.68
2022-11-10T17:22:18.343Z,53.77
2022-11-10T17:25:08.004Z,53.64
2022-11-10T17:27:08.047Z,54.23
2022-11-10T17:30:08.123Z,54.14
2022-11-10T17:32:21.446Z,54.16
2022-11-10T17:34:18.360Z,54.48
2022-11-10T17:37:08.059Z,54
2022-11-10T17:39:08.031Z,54.3
2022-11-10T17:42:08.034Z,54.66
2022-11-10T17:44:18.318Z,54.26
2022-11-10T17:46:18.321Z,54.4
2022-11-10T17:49:08.020Z,54.82
2022-11-10T17:51:08.029Z,54.63
2022-11-10T17:55:08.002Z,54.67
2022-11-10T17:58:19.359Z,55.15
2022-11-10T18:01:18.388Z,55.28
2022-11-10T18:04:08.039Z,55.49
2022-11-10T18:06:08.075Z,55.12
2022-11-10T18:10:08.062Z,56.39
2022-11-10T18:12:18.309Z,55.94
2022-11-10T18:15:08.140Z,56.14
2022-11-10T18:18:08.042Z,56.8
2022-11-10T18:20:08.063Z,56.55
2022-11-10T18:23:08.170Z,56.27
2022-11-10T18:26:08.038Z,56.61
2022-11-10T18:28:08.055Z,56.49
2022-11-10T18:30:08.179Z,56.88
2022-11-10T18:32:08.190Z,56.95
2022-11-10T18:35:08.057Z,56.86
2022-11-10T18:39:08.014Z,57.19
2022-11-10T18:41:28.642Z,56.91
2022-11-10T18:44:28.619Z,56.99
2022-11-10T18:47:08.112Z,56.82
2022-11-10T18:50:08.078Z,56.76
2022-11-10T18:53:18.419Z,56.92
2022-11-10T18:55:18.334Z,57.03
2022-11-10T18:58:38.884Z,57.46
2022-11-10T19:01:18.412Z,56.69
2022-11-10T19:04:18.318Z,56.78
2022-11-10T19:07:08.095Z,56.64
2022-11-10T19:10:08.051Z,56.32
2022-11-10T19:12:08.065Z,56.09
2022-11-10T19:14:08.102Z,56.18
2022-11-10T19:17:08.049Z,56.07
2022-11-10T19:19:08.047Z,55.76
2022-11-10T19:22:08.059Z,56.04
2022-11-10T19:25:09.008Z,56.04
2022-11-10T19:27:28.625Z,56.35
2022-11-10T19:30:08.114Z,55.88
2022-11-10T19:32:28.738Z,56.27
2022-11-10T19:35:18.338Z,56.22
2022-11-10T19:38:08.030Z,56.65
2022-11-10T19:40:30.336Z,56.75
2022-11-10T19:43:18.343Z,57.37
2022-11-10T19:47:08.039Z,57.67
2022-11-10T19:49:08.032Z,57.58
2022-11-10T19:51:08.042Z,57.35
2022-11-10T19:53:18.344Z,57.42
2022-11-10T19:56:08.055Z,57.48
2022-11-10T19:59:08.061Z,57.57
2022-11-10T20:01:08.068Z,57.51
2022-11-10T20:03:18.335Z,57.91
2022-11-10T20:05:18.336Z,58.56
2022-11-10T20:08:09.901Z,57.7
2022-11-10T20:11:08.020Z,58.69
2022-11-10T20:13:08.027Z,57.71
2022-11-10T20:15:18.342Z,57.88
2022-11-10T20:19:08.041Z,57.85
2022-11-10T20:23:08.042Z,58.25
2022-11-10T20:25:18.322Z,58.33
2022-11-10T20:29:08.078Z,59.16
2022-11-10T20:31:30.365Z,58.45
2022-11-10T20:34:18.339Z,58.98
2022-11-10T20:37:08.077Z,58.53
2022-11-10T20:39:30.299Z,58.57
2022-11-10T20:42:18.348Z,58.58
2022-11-10T20:44:18.336Z,58.63
2022-11-10T20:47:08.148Z,58.54
2022-11-10T20:50:13.213Z,58.72
2022-11-10T20:52:08.055Z,58.3
2022-11-10T20:54:18.340Z,58.74
2022-11-10T20:58:08.067Z,58.6
2022-11-10T21:00:08.070Z,58.9
2022-11-10T21:02:08.086Z,58.49
2022-11-10T21:04:18.356Z,59.05
2022-11-10T21:07:08.127Z,58.55
2022-11-10T21:10:08.113Z,58.68
2022-11-10T21:13:08.042Z,58.46
2022-11-10T21:15:08.043Z,58.83
2022-11-10T21:17:08.051Z,58.69
2022-11-10T21:19:08.038Z,58.75
2022-11-10T21:21:08.135Z,58.92
2022-11-10T21:24:08.032Z,59.13
2022-11-10T21:26:08.048Z,58.69
2022-11-10T21:28:08.033Z,59.22
2022-11-10T21:30:11.534Z,59.33
2022-11-10T21:33:08.039Z,59.12
2022-11-10T21:35:08.033Z,58.91
2022-11-10T21:37:08.047Z,59.19
2022-11-10T21:40:08.032Z,59.55
2022-11-10T21:42:08.033Z,59.51
2022-11-10T21:46:08.031Z,59.31
2022-11-10T21:48:08.052Z,59.31
2022-11-10T21:51:08.024Z,58.92
2022-11-10T21:53:08.135Z,58.77
2022-11-10T21:56:08.025Z,59.28
2022-11-10T21:58:08.044Z,59.77
2022-11-10T22:00:08.123Z,59.88
2022-11-10T22:03:08.016Z,59.23
2022-11-10T22:06:08.040Z,59.37
2022-11-10T22:10:08.051Z,59.33
2022-11-10T22:12:08.077Z,58.96
2022-11-10T22:14:18.370Z,59.25
2022-11-10T22:18:08.075Z,60.07
2022-11-10T22:22:08.051Z,59
2022-11-10T22:24:18.350Z,59.44
2022-11-10T22:27:08.039Z,59.39
2022-11-10T22:29:08.057Z,59.41
2022-11-10T22:32:08.089Z,58.14
2022-11-10T22:34:18.377Z,58.34
2022-11-10T22:38:08.057Z,59.29
2022-11-10T22:40:08.092Z,58.9
2022-11-10T22:43:19.363Z,58.47
2022-11-10T22:45:35.761Z,58.59
2022-11-10T22:48:08.058Z,58.05
2022-11-10T22:50:08.074Z,58.54
2022-11-10T22:52:08.072Z,58.39
2022-11-10T22:54:18.317Z,58.8
2022-11-10T22:56:18.414Z,58.48
2022-11-10T22:59:08.049Z,58.44
2022-11-10T23:03:08.081Z,58.14
2022-11-10T23:05:18.392Z,58.16
2022-11-10T23:08:18.373Z,58.07
2022-11-10T23:11:08.055Z,58.6
2022-11-10T23:14:08.046Z,58.31
2022-11-10T23:16:18.372Z,58.14
2022-11-10T23:18:28.702Z,58.75
2022-11-10T23:22:08.104Z,59.19
2022-11-10T23:26:08.104Z,59.09
2022-11-10T23:28:18.453Z,59.5
2022-11-10T23:31:08.038Z,58.78
2022-11-10T23:34:08.048Z,59.02
2022-11-10T23:36:08.073Z,58.27
2022-11-10T23:39:18.408Z,59.34
2022-11-10T23:42:08.055Z,58.56
2022-11-10T23:44:08.055Z,58.91
2022-11-10T23:47:08.050Z,58.93
2022-11-10T23:49:18.381Z,59.45
2022-11-10T23:52:08.052Z,58.84
2022-11-10T23:54:08.077Z,58.7
2022-11-10T23:58:08.056Z,59.11
